Time;durP1;ratioP1;P1;durP2;ratioP2;P2;SDS_P1;SDS_P2;PMS_P1;PMS_P2;Temp;Humidity;BMP_temperature;BMP_pressure;BME280_temperature;BME280_humidity;BME280_pressure;Samples;Min_cycle;Max_cycle;Signal;HPM_P1;HPM_P2
2021/12/05 00:19:28;;;;;;;7.38;1.48;;;4.10;99.90;;;;;;5008100;28;20469;-82
2021/12/05 00:24:17;;;;;;;13.55;2.42;;;4.00;99.90;;;;;;4991830;28;20105;-82
2021/12/05 00:26:50;;;;;;;11.57;1.98;;;4.00;99.90;;;;;;4974441;28;20117;-82
2021/12/05 00:29:45;;;;;;;8.07;1.67;;;4.00;99.90;;;;;;4990612;28;20026;-82
2021/12/05 00:55:51;;;;;;;10.90;2.05;;;3.60;99.90;;;;;;5006325;28;20115;-82
2021/12/05 01:14:22;;;;;;;11.68;2.60;;;3.50;99.90;;;;;;4985528;28;20034;-83
2021/12/05 01:16:48;;;;;;;12.73;3.60;;;3.50;99.90;;;;;;4980974;28;20383;-82
2021/12/05 01:19:15;;;;;;;15.60;3.30;;;3.50;99.90;;;;;;4986157;28;20064;-83
2021/12/05 01:21:43;;;;;;;8.20;2.50;;;3.50;99.90;;;;;;4988418;28;20091;-83
2021/12/05 01:24:26;;;;;;;8.30;3.13;;;3.60;99.90;;;;;;4989958;28;20109;-82
2021/12/05 01:32:36;;;;;;;15.13;2.97;;;3.60;99.90;;;;;;4986243;28;20072;-82
2021/12/05 01:40:29;;;;;;;12.85;2.05;;;3.60;99.90;;;;;;5007883;28;20072;-82
2021/12/05 01:48:47;;;;;;;9.80;1.98;;;3.70;99.90;;;;;;5008903;28;20215;-83
2021/12/05 01:51:30;;;;;;;7.93;1.60;;;3.70;99.90;;;;;;5001692;28;20041;-83
2021/12/05 01:57:05;;;;;;;10.30;2.70;;;3.70;99.90;;;;;;5010367;28;20033;-82
2021/12/05 02:30:01;;;;;;;16.83;5.63;;;3.90;99.90;;;;;;4992740;28;20512;-82
2021/12/05 02:40:33;;;;;;;20.83;9.05;;;3.90;99.90;;;;;;5008694;28;20117;-83
2021/12/05 02:43:50;;;;;;;59.45;14.05;;;3.90;99.90;;;;;;4991369;28;20485;-82
2021/12/05 02:45:49;;;;;;;46.05;14.63;;;3.80;99.90;;;;;;4983625;28;20080;-83
2021/12/05 02:48:15;;;;;;;35.50;9.73;;;3.80;99.90;;;;;;4973831;28;20118;-83
2021/12/05 02:50:40;;;;;;;31.88;8.90;;;3.80;99.90;;;;;;4991302;28;20136;-82
2021/12/05 02:53:42;;;;;;;52.40;12.57;;;3.80;99.90;;;;;;4965949;28;20733;-82
2021/12/05 02:55:59;;;;;;;29.83;7.15;;;3.80;99.90;;;;;;4998091;28;20401;-83
2021/12/05 02:59:18;;;;;;;31.10;11.32;;;3.80;99.90;;;;;;4988915;28;20468;-83
2021/12/05 03:01:28;;;;;;;25.40;9.15;;;3.80;99.90;;;;;;5000500;28;20037;-82
2021/12/05 03:03:54;;;;;;;38.72;11.95;;;3.80;99.90;;;;;;4981473;28;20026;-83
2021/12/05 03:06:24;;;;;;;26.65;8.75;;;3.80;99.90;;;;;;4994957;28;20079;-83
2021/12/05 03:08:56;;;;;;;46.42;11.38;;;3.80;99.90;;;;;;4991888;28;20064;-83
2021/12/05 03:11:22;;;;;;;42.17;11.73;;;3.80;99.90;;;;;;4980135;28;20056;-82
2021/12/05 03:13:47;;;;;;;23.63;6.53;;;3.80;99.90;;;;;;4997279;28;20501;-82
2021/12/05 03:16:14;;;;;;;29.10;9.10;;;3.80;99.90;;;;;;4992662;28;20083;-81
2021/12/05 03:18:40;;;;;;;34.33;10.05;;;3.80;99.90;;;;;;4986272;28;20038;-82
2021/12/05 03:21:07;;;;;;;42.97;13.52;;;3.90;99.90;;;;;;4992994;28;20037;-83
2021/12/05 03:23:34;;;;;;;26.98;8.13;;;3.80;99.90;;;;;;5004254;28;20034;-80
2021/12/05 03:26:00;;;;;;;41.00;12.63;;;3.80;99.90;;;;;;4973156;28;20041;-82
2021/12/05 03:28:26;;;;;;;31.25;8.13;;;3.80;99.90;;;;;;4971789;28;20026;-83
2021/12/05 03:30:51;;;;;;;28.02;9.90;;;3.80;99.90;;;;;;4984303;28;20026;-81
2021/12/05 03:33:17;;;;;;;11.55;3.65;;;3.80;99.90;;;;;;4967984;28;20052;-82
2021/12/05 03:35:43;;;;;;;19.15;7.30;;;3.80;99.90;;;;;;4991149;28;20049;-82
2021/12/05 03:38:09;;;;;;;26.60;6.90;;;3.80;99.90;;;;;;5002331;28;20064;-83
2021/12/05 03:40:34;;;;;;;8.00;2.58;;;3.70;99.90;;;;;;4974273;28;20038;-83
2021/12/05 03:43:02;;;;;;;14.88;4.50;;;3.80;99.90;;;;;;5008797;28;20038;-82
2021/12/05 03:45:31;;;;;;;27.63;5.22;;;3.80;99.90;;;;;;4973009;28;20041;-82
2021/12/05 03:47:56;;;;;;;13.98;2.83;;;3.70;99.90;;;;;;4992612;28;20389;-83
2021/12/05 03:50:23;;;;;;;15.57;4.15;;;3.70;99.90;;;;;;4978834;28;20032;-83
2021/12/05 03:52:48;;;;;;;10.02;2.25;;;3.70;99.90;;;;;;4989102;28;20040;-82
2021/12/05 03:55:14;;;;;;;8.85;3.08;;;3.70;99.90;;;;;;4995074;28;20029;-82
2021/12/05 03:57:40;;;;;;;10.43;2.55;;;3.70;99.90;;;;;;4993775;28;20116;-78
2021/12/05 04:00:20;;;;;;;6.50;1.85;;;3.70;99.90;;;;;;5006211;28;20058;-78
2021/12/05 04:02:47;;;;;;;12.63;2.97;;;3.70;99.90;;;;;;4989615;28;20038;-78
2021/12/05 04:05:12;;;;;;;13.57;2.15;;;3.70;99.90;;;;;;4974822;28;20040;-78
2021/12/05 04:07:38;;;;;;;6.55;1.15;;;3.60;99.90;;;;;;4975550;28;20026;-78
2021/12/05 04:10:04;;;;;;;13.00;3.22;;;3.60;99.90;;;;;;5007847;28;20034;-78
2021/12/05 04:12:30;;;;;;;6.10;1.20;;;3.60;99.90;;;;;;5007956;28;20045;-78
2021/12/05 04:14:55;;;;;;;8.48;1.73;;;3.60;99.90;;;;;;4989022;28;20030;-78
2021/12/05 04:17:21;;;;;;;7.32;1.58;;;3.60;99.90;;;;;;4990388;28;20037;-78
2021/12/05 04:19:46;;;;;;;9.63;2.13;;;3.60;99.90;;;;;;4987897;28;20450;-78
2021/12/05 04:22:12;;;;;;;9.18;1.65;;;3.60;99.90;;;;;;5005443;28;20109;-78
2021/12/05 04:24:38;;;;;;;10.93;2.05;;;3.50;99.90;;;;;;5006318;28;21078;-78
2021/12/05 04:27:04;;;;;;;11.75;1.83;;;3.50;99.90;;;;;;5006984;28;20037;-77
2021/12/05 04:29:31;;;;;;;2.58;1.05;;;3.50;99.90;;;;;;5006428;28;20034;-77
2021/12/05 04:31:57;;;;;;;1.75;0.73;;;3.50;99.90;;;;;;4973510;28;20041;-77
2021/12/05 04:34:22;;;;;;;5.80;1.45;;;3.50;99.90;;;;;;5008038;28;20087;-77
2021/12/05 04:36:48;;;;;;;10.63;1.30;;;3.40;99.90;;;;;;4975945;28;20029;-77
2021/12/05 04:39:14;;;;;;;13.30;2.55;;;3.50;99.90;;;;;;4993012;28;20034;-78
2021/12/05 04:41:40;;;;;;;11.00;1.77;;;3.50;99.90;;;;;;5006768;28;20032;-77
2021/12/05 04:44:07;;;;;;;9.55;1.90;;;3.40;99.90;;;;;;5008704;28;20021;-77
2021/12/05 04:46:32;;;;;;;10.02;1.63;;;3.30;99.90;;;;;;4987839;28;20161;-77
2021/12/05 04:48:58;;;;;;;7.68;0.95;;;3.40;99.90;;;;;;4987756;28;20556;-78
2021/12/05 04:51:28;;;;;;;6.68;1.35;;;3.40;99.90;;;;;;4977754;28;20029;-77
2021/12/05 04:53:54;;;;;;;5.20;1.15;;;3.40;99.90;;;;;;4991947;28;20165;-77
2021/12/05 04:56:20;;;;;;;5.35;1.48;;;3.40;99.90;;;;;;4985399;28;20112;-77
2021/12/05 04:58:45;;;;;;;13.25;3.70;;;3.40;99.90;;;;;;4986561;28;20496;-77
2021/12/05 05:01:11;;;;;;;4.63;1.10;;;3.40;99.90;;;;;;4975949;28;20033;-77
2021/12/05 05:03:36;;;;;;;3.75;1.38;;;3.30;99.90;;;;;;4977159;28;20041;-77
2021/12/05 05:06:11;;;;;;;8.00;1.52;;;3.30;99.90;;;;;;4988359;28;20037;-78
2021/12/05 05:08:37;;;;;;;7.15;1.75;;;3.30;99.90;;;;;;4973500;28;20065;-77
2021/12/05 05:11:05;;;;;;;10.38;2.33;;;3.30;99.90;;;;;;5005115;28;20126;-77
2021/12/05 05:13:32;;;;;;;6.18;1.00;;;3.30;99.90;;;;;;5000948;28;20029;-77
2021/12/05 05:15:57;;;;;;;8.63;1.38;;;3.30;99.90;;;;;;5008533;28;20058;-77
2021/12/05 05:18:27;;;;;;;3.70;1.25;;;3.20;99.90;;;;;;5006107;28;20401;-78
2021/12/05 05:23:41;;;;;;;3.55;1.13;;;3.20;99.90;;;;;;4986056;28;20021;-77
2021/12/05 05:45:17;;;;;;;5.03;1.50;;;3.10;99.90;;;;;;4993201;28;20067;-77
2021/12/05 05:50:15;;;;;;;7.95;1.70;;;3.10;99.90;;;;;;4986436;28;20395;-77
2021/12/05 05:52:41;;;;;;;11.90;1.65;;;3.10;99.90;;;;;;5003096;28;20041;-77
2021/12/05 05:55:06;;;;;;;11.85;1.80;;;3.10;99.90;;;;;;5006309;28;20128;-78
2021/12/05 06:00:28;;;;;;;8.45;1.40;;;3.10;99.90;;;;;;4988090;28;20041;-77
2021/12/05 06:05:38;;;;;;;9.98;1.70;;;3.10;99.90;;;;;;4996506;28;20464;-77
2021/12/05 06:08:04;;;;;;;8.85;1.75;;;3.10;99.90;;;;;;4988937;28;20033;-78
2021/12/05 06:10:30;;;;;;;9.20;1.33;;;3.20;99.90;;;;;;4988085;28;20052;-78
2021/12/05 06:12:55;;;;;;;4.28;1.48;;;3.10;99.90;;;;;;4989151;28;20512;-78
2021/12/05 06:15:23;;;;;;;4.93;1.45;;;3.10;99.90;;;;;;4988814;28;20036;-78
2021/12/05 06:17:49;;;;;;;7.80;1.40;;;3.20;99.90;;;;;;4975384;28;20650;-78
2021/12/05 06:20:17;;;;;;;10.35;1.95;;;3.20;99.90;;;;;;4990761;28;20041;-78
2021/12/05 06:22:45;;;;;;;8.52;1.33;;;3.20;99.90;;;;;;4989124;28;20088;-78
2021/12/05 06:25:17;;;;;;;8.45;1.23;;;3.20;99.90;;;;;;4982357;28;20038;-77
2021/12/05 06:27:43;;;;;;;5.78;1.45;;;3.20;99.90;;;;;;4969760;28;20085;-78
2021/12/05 06:30:32;;;;;;;5.10;1.98;;;3.20;99.90;;;;;;4970524;28;20405;-79
2021/12/05 06:48:40;;;;;;;5.13;2.80;;;3.30;99.90;;;;;;5010156;28;20034;-78
2021/12/05 06:51:06;;;;;;;7.68;1.80;;;3.30;99.90;;;;;;4989414;28;20037;-78
2021/12/05 06:53:31;;;;;;;7.80;1.50;;;3.40;99.90;;;;;;4990760;28;20037;-80
2021/12/05 06:55:57;;;;;;;10.52;1.30;;;3.40;99.90;;;;;;4989174;28;20030;-78
2021/12/05 06:58:22;;;;;;;11.50;1.38;;;3.40;99.90;;;;;;4991318;28;20036;-78
2021/12/05 07:00:48;;;;;;;8.85;1.42;;;3.40;99.90;;;;;;4991481;28;20040;-78
2021/12/05 07:03:14;;;;;;;4.57;1.63;;;3.40;99.90;;;;;;4978399;28;20030;-78
2021/12/05 07:05:52;;;;;;;4.13;1.40;;;3.40;99.90;;;;;;4978835;28;20025;-77
2021/12/05 07:08:18;;;;;;;7.32;1.50;;;3.40;99.90;;;;;;5009950;28;20045;-78
2021/12/05 07:11:00;;;;;;;6.82;1.45;;;3.40;99.90;;;;;;4986305;28;20494;-77
2021/12/05 07:13:58;;;;;;;6.57;1.40;;;3.40;99.90;;;;;;4993910;28;20041;-78
2021/12/05 07:16:31;;;;;;;2.00;1.00;;;3.40;99.90;;;;;;5012514;28;20072;-78
2021/12/05 07:21:40;;;;;;;1.67;0.98;;;3.50;99.90;;;;;;4989966;28;20068;-79
2021/12/05 07:24:24;;;;;;;5.35;1.05;;;3.40;99.90;;;;;;5011005;28;20060;-78
2021/12/05 07:40:28;;;;;;;8.90;1.30;;;3.50;99.90;;;;;;5009287;28;20596;-78
2021/12/05 07:43:04;;;;;;;4.07;1.10;;;3.50;99.90;;;;;;4979456;28;20386;-78
2021/12/05 07:45:42;;;;;;;6.53;1.63;;;3.50;99.90;;;;;;4992134;28;20046;-78
2021/12/05 07:48:15;;;;;;;6.50;1.90;;;3.50;99.90;;;;;;5009354;28;20517;-78
2021/12/05 07:50:54;;;;;;;4.88;1.27;;;3.50;99.90;;;;;;4980075;28;20029;-78
2021/12/05 07:53:29;;;;;;;7.82;1.27;;;3.50;99.90;;;;;;5004662;28;20171;-78
2021/12/05 07:56:00;;;;;;;2.72;0.90;;;3.50;99.90;;;;;;5005265;28;20033;-78
2021/12/05 07:58:46;;;;;;;6.95;1.33;;;3.50;99.90;;;;;;4976383;28;20033;-78
2021/12/05 08:15:06;;;;;;;13.27;1.70;;;3.60;99.90;;;;;;4996163;28;20032;-78
2021/12/05 08:17:32;;;;;;;3.30;1.08;;;3.60;99.90;;;;;;5006216;28;20025;-78
2021/12/05 08:19:58;;;;;;;7.60;1.15;;;3.60;99.90;;;;;;4993087;28;20045;-78
2021/12/05 08:22:24;;;;;;;6.47;2.10;;;3.60;99.90;;;;;;4971647;28;20049;-78
2021/12/05 08:24:51;;;;;;;3.10;1.40;;;3.60;99.90;;;;;;4991331;28;20030;-77
2021/12/05 08:27:16;;;;;;;6.63;1.50;;;3.60;99.90;;;;;;5025010;28;20108;-78
2021/12/05 08:35:11;;;;;;;4.40;1.50;;;3.70;99.90;;;;;;4991504;28;20080;-78
2021/12/05 09:21:32;;;;;;;3.30;1.38;;;4.10;99.90;;;;;;5006628;28;20393;-80
2021/12/05 09:24:10;;;;;;;5.10;1.67;;;4.10;99.90;;;;;;4996472;28;20029;-80
2021/12/05 10:01:42;;;;;;;3.92;0.98;;;4.40;99.90;;;;;;4993554;28;20137;-77
2021/12/05 10:06:55;;;;;;;6.45;1.45;;;4.50;99.90;;;;;;5008086;28;20064;-78
2021/12/05 10:12:28;;;;;;;8.10;1.58;;;4.60;99.90;;;;;;5007452;28;20485;-77
2021/12/05 10:15:01;;;;;;;2.13;1.20;;;4.70;99.90;;;;;;5010815;28;20044;-78
2021/12/05 10:17:43;;;;;;;4.25;1.45;;;4.70;99.90;;;;;;4980836;28;20037;-77
2021/12/05 10:35:25;;;;;;;8.52;1.80;;;4.90;99.90;;;;;;5009154;28;20083;-78
2021/12/05 10:38:00;;;;;;;1.60;0.85;;;5.00;99.90;;;;;;5010898;28;20030;-77
2021/12/05 10:40:35;;;;;;;3.40;1.25;;;5.00;99.90;;;;;;4997203;28;20040;-78
2021/12/05 10:43:09;;;;;;;6.72;2.00;;;5.00;99.90;;;;;;4976858;28;21643;-77
2021/12/05 10:45:37;;;;;;;4.22;1.45;;;5.00;99.90;;;;;;4998928;28;20087;-78
2021/12/05 10:48:08;;;;;;;5.53;3.33;;;5.10;99.90;;;;;;4975113;28;20478;-78
2021/12/05 10:50:42;;;;;;;6.45;1.55;;;5.10;99.90;;;;;;4993912;28;20033;-78
2021/12/05 10:53:45;;;;;;;6.85;1.45;;;5.10;99.90;;;;;;4991121;28;20026;-79
2021/12/05 10:56:15;;;;;;;5.22;1.70;;;5.10;99.90;;;;;;5008774;28;20401;-78
2021/12/05 10:58:46;;;;;;;4.40;1.15;;;5.10;99.90;;;;;;5027778;28;20087;-78
2021/12/05 11:01:27;;;;;;;5.50;2.05;;;5.10;99.90;;;;;;5009588;28;20032;-78
2021/12/05 11:04:00;;;;;;;3.80;1.40;;;5.10;99.90;;;;;;4973448;28;20056;-78
2021/12/05 11:06:34;;;;;;;5.90;1.45;;;5.10;99.90;;;;;;4992681;28;20168;-78
2021/12/05 11:09:00;;;;;;;5.20;1.58;;;5.10;99.90;;;;;;5006862;28;20091;-78
2021/12/05 11:11:26;;;;;;;3.33;1.52;;;5.20;99.90;;;;;;5006977;28;20124;-78
2021/12/05 11:13:51;;;;;;;4.50;1.83;;;5.20;99.90;;;;;;4985965;28;20037;-77
2021/12/05 11:16:35;;;;;;;5.40;1.23;;;5.30;99.90;;;;;;4992546;28;20037;-78
2021/12/05 11:19:01;;;;;;;3.38;1.60;;;5.30;99.90;;;;;;4978495;28;20064;-79
2021/12/05 11:21:33;;;;;;;2.35;0.85;;;5.50;99.90;;;;;;5008322;28;20068;-79
2021/12/05 11:24:24;;;;;;;3.78;1.63;;;5.40;99.90;;;;;;5009014;28;20052;-79
2021/12/05 11:27:16;;;;;;;3.78;1.65;;;5.50;99.90;;;;;;5010181;28;20037;-78
2021/12/05 11:29:46;;;;;;;7.18;2.17;;;5.70;99.90;;;;;;5026460;28;20037;-79
2021/12/05 11:32:15;;;;;;;3.17;1.45;;;5.70;99.90;;;;;;5006151;28;20038;-79
2021/12/05 11:34:40;;;;;;;2.80;1.38;;;5.70;99.90;;;;;;4999969;28;20541;-78
2021/12/05 11:37:06;;;;;;;3.92;1.95;;;5.80;99.90;;;;;;4977670;28;20116;-78
2021/12/05 11:39:31;;;;;;;4.10;1.48;;;5.80;99.90;;;;;;5002898;28;20022;-78
2021/12/05 11:41:57;;;;;;;2.58;0.95;;;5.80;99.90;;;;;;4990709;28;20397;-79
2021/12/05 11:44:23;;;;;;;2.70;1.40;;;5.90;99.90;;;;;;5009020;28;20029;-78
2021/12/05 11:46:49;;;;;;;4.13;1.63;;;6.00;99.90;;;;;;4974575;28;20040;-78
2021/12/05 11:49:20;;;;;;;5.03;1.50;;;6.10;99.90;;;;;;4974891;28;20105;-78
2021/12/05 11:51:58;;;;;;;5.15;1.40;;;6.00;99.90;;;;;;4977927;28;20045;-78
2021/12/05 11:54:37;;;;;;;3.92;1.08;;;6.00;99.90;;;;;;5000879;28;20033;-78
2021/12/05 11:57:09;;;;;;;7.28;1.50;;;6.10;99.90;;;;;;5006744;28;20044;-78
2021/12/05 11:59:46;;;;;;;2.17;1.60;;;6.20;99.90;;;;;;4994055;28;20148;-78
2021/12/05 12:02:24;;;;;;;1.98;1.17;;;6.20;99.90;;;;;;4990185;28;20022;-78
2021/12/05 12:04:56;;;;;;;3.92;1.33;;;6.20;99.90;;;;;;5003043;28;20117;-78
2021/12/05 12:07:24;;;;;;;1.65;1.10;;;6.30;99.90;;;;;;5007089;28;20036;-77
2021/12/05 12:09:52;;;;;;;3.95;1.52;;;6.30;99.90;;;;;;4999307;28;20056;-78
2021/12/05 12:12:18;;;;;;;2.95;1.35;;;6.30;99.90;;;;;;4992133;28;20103;-78
2021/12/05 12:14:43;;;;;;;3.17;1.40;;;6.30;99.90;;;;;;4975758;28;20469;-78
2021/12/05 12:17:15;;;;;;;4.40;1.00;;;6.30;99.90;;;;;;4975804;28;20030;-78
2021/12/05 12:19:40;;;;;;;3.88;1.55;;;6.30;99.90;;;;;;5010011;28;20041;-78
2021/12/05 12:22:07;;;;;;;2.22;1.08;;;6.30;99.90;;;;;;4988667;28;20030;-78
2021/12/05 12:24:33;;;;;;;6.05;1.65;;;6.20;99.90;;;;;;4974473;28;20390;-77
2021/12/05 12:26:59;;;;;;;5.70;1.80;;;6.20;99.90;;;;;;5001001;28;20034;-78
2021/12/05 12:29:24;;;;;;;3.47;1.13;;;6.20;99.90;;;;;;4986879;28;20022;-77
2021/12/05 12:31:50;;;;;;;1.55;0.90;;;6.20;99.90;;;;;;4297977;28;10000416;-78
2021/12/05 12:34:18;;;;;;;2.90;1.50;;;6.20;99.90;;;;;;4987007;28;20048;-78
2021/12/05 12:36:49;;;;;;;5.07;1.50;;;6.20;99.90;;;;;;5005608;28;20038;-78
2021/12/05 12:39:18;;;;;;;5.45;2.05;;;6.20;99.90;;;;;;4987007;28;20108;-78
2021/12/05 12:42:03;;;;;;;5.30;1.27;;;6.30;99.90;;;;;;5002553;28;20065;-78
2021/12/05 12:44:29;;;;;;;3.72;1.17;;;6.20;99.90;;;;;;4987987;28;20029;-78
2021/12/05 12:46:56;;;;;;;5.50;1.48;;;6.20;99.90;;;;;;4989739;28;20026;-78
2021/12/05 12:49:43;;;;;;;5.10;1.15;;;6.10;99.90;;;;;;5004052;28;20022;-78
2021/12/05 12:52:14;;;;;;;4.07;1.30;;;6.10;99.90;;;;;;5004123;28;20034;-78
2021/12/05 12:54:44;;;;;;;2.72;1.38;;;6.20;99.90;;;;;;4997002;28;20034;-77
2021/12/05 12:57:29;;;;;;;1.95;1.27;;;6.20;99.90;;;;;;5005060;28;20030;-78
2021/12/05 12:59:58;;;;;;;5.65;2.05;;;6.20;99.90;;;;;;4998552;28;20068;-79
2021/12/05 13:10:59;;;;;;;2.35;1.17;;;6.20;99.90;;;;;;5008332;28;20032;-79
2021/12/05 13:13:28;;;;;;;2.50;1.08;;;6.20;99.90;;;;;;4985817;28;20490;-79
2021/12/05 13:16:08;;;;;;;2.88;0.82;;;6.20;99.90;;;;;;4987881;28;20025;-79
2021/12/05 13:18:35;;;;;;;8.35;1.10;;;6.20;99.90;;;;;;4989134;28;20045;-80
2021/12/05 13:21:13;;;;;;;1.67;0.80;;;6.20;99.90;;;;;;4970123;28;20029;-80
2021/12/05 13:23:50;;;;;;;2.60;1.30;;;6.20;99.90;;;;;;5005227;28;20036;-79
2021/12/05 13:26:35;;;;;;;2.20;1.02;;;6.30;99.90;;;;;;4969188;28;20145;-80
2021/12/05 13:29:31;;;;;;;3.75;1.10;;;6.30;99.90;;;;;;4990347;28;20052;-80
2021/12/05 13:32:07;;;;;;;1.63;0.80;;;6.20;99.90;;;;;;4993794;28;20513;-80
2021/12/05 13:34:41;;;;;;;3.20;1.50;;;6.20;99.90;;;;;;4984483;28;20112;-80
2021/12/05 13:37:08;;;;;;;2.22;1.10;;;6.30;99.90;;;;;;5020739;28;20021;-78
2021/12/05 13:39:41;;;;;;;3.13;1.08;;;6.40;99.90;;;;;;5006002;28;20113;-78
2021/12/05 13:42:24;;;;;;;4.93;1.20;;;6.30;99.90;;;;;;5016637;28;20030;-78
2021/12/05 13:45:04;;;;;;;3.65;1.05;;;6.30;99.90;;;;;;4987366;28;20029;-77
2021/12/05 13:47:40;;;;;;;1.85;0.70;;;6.30;99.90;;;;;;5005876;28;20056;-78
2021/12/05 13:50:18;;;;;;;1.50;0.98;;;6.30;99.90;;;;;;4988558;28;20040;-77
2021/12/05 13:52:51;;;;;;;3.45;1.20;;;6.40;99.90;;;;;;5019593;28;20036;-78
2021/12/05 13:55:41;;;;;;;1.35;0.95;;;6.40;99.90;;;;;;5005818;28;20042;-78
2021/12/05 13:58:19;;;;;;;2.78;1.15;;;6.50;99.90;;;;;;4990972;28;20037;-79
2021/12/05 14:00:51;;;;;;;1.67;1.08;;;6.60;99.90;;;;;;5018902;28;20026;-78
2021/12/05 14:03:39;;;;;;;1.38;0.80;;;6.50;99.90;;;;;;5002053;28;20092;-78
2021/12/05 14:06:22;;;;;;;3.13;0.98;;;6.50;99.90;;;;;;5001650;28;20029;-77
2021/12/05 14:08:48;;;;;;;2.70;0.98;;;6.50;99.90;;;;;;4998102;28;20030;-78
2021/12/05 14:11:13;;;;;;;3.78;0.93;;;6.50;99.90;;;;;;4970121;28;20029;-78
2021/12/05 14:13:42;;;;;;;1.13;0.73;;;6.50;99.90;;;;;;5005224;28;20076;-82
2021/12/05 14:16:07;;;;;;;4.53;0.90;;;6.50;99.90;;;;;;4985667;28;20514;-79
2021/12/05 14:18:33;;;;;;;2.25;0.90;;;6.30;99.90;;;;;;4991318;28;20029;-80
2021/12/05 14:21:17;;;;;;;1.73;1.20;;;6.30;99.90;;;;;;5002866;28;20056;-79
2021/12/05 14:23:48;;;;;;;3.83;1.00;;;6.40;99.90;;;;;;4998504;28;20045;-79
2021/12/05 14:26:19;;;;;;;3.45;0.95;;;6.40;99.90;;;;;;4983504;28;20036;-80
2021/12/05 14:28:57;;;;;;;3.00;1.30;;;6.30;99.90;;;;;;4988524;28;20041;-80
2021/12/05 14:31:24;;;;;;;1.50;0.80;;;6.40;99.90;;;;;;4971408;28;20041;-79
2021/12/05 14:33:50;;;;;;;1.65;1.30;;;6.40;99.90;;;;;;4971502;28;20508;-79
2021/12/05 14:36:30;;;;;;;2.65;1.33;;;6.40;99.90;;;;;;4976093;28;20037;-80
2021/12/05 14:39:06;;;;;;;3.53;0.95;;;6.40;99.90;;;;;;4978270;28;20509;-79
2021/12/05 14:41:32;;;;;;;3.50;1.45;;;6.40;99.90;;;;;;5007893;28;20037;-79
2021/12/05 14:43:57;;;;;;;2.55;1.10;;;6.40;99.90;;;;;;5004458;28;20029;-79
2021/12/05 14:46:23;;;;;;;4.43;1.42;;;6.30;99.90;;;;;;4990807;28;20032;-80
2021/12/05 14:48:57;;;;;;;2.60;1.30;;;6.30;99.90;;;;;;5006731;28;20128;-82
2021/12/05 14:51:37;;;;;;;2.90;1.05;;;6.20;99.90;;;;;;5002149;28;20037;-79
2021/12/05 14:54:03;;;;;;;4.90;1.50;;;6.20;99.90;;;;;;4988685;28;20468;-79
2021/12/05 14:56:29;;;;;;;2.97;1.70;;;6.30;99.90;;;;;;4973262;28;20042;-79
2021/12/05 14:59:12;;;;;;;2.85;1.10;;;6.20;99.90;;;;;;5002748;28;20076;-80
2021/12/05 15:01:39;;;;;;;3.00;1.40;;;6.30;99.90;;;;;;4990259;28;20605;-79
2021/12/05 15:04:06;;;;;;;1.95;1.42;;;6.20;99.90;;;;;;4993798;28;20068;-79
2021/12/05 15:06:39;;;;;;;2.47;1.60;;;6.30;99.90;;;;;;5008511;28;20025;-79
2021/12/05 15:09:07;;;;;;;2.45;1.20;;;6.20;99.90;;;;;;5007350;28;20052;-79
2021/12/05 15:11:33;;;;;;;2.42;1.73;;;6.20;99.90;;;;;;4989583;28;20569;-79
2021/12/05 15:14:03;;;;;;;6.70;2.00;;;6.10;99.90;;;;;;5010421;28;20096;-79
2021/12/05 15:16:29;;;;;;;2.42;1.38;;;6.20;99.90;;;;;;4991547;28;20037;-79
2021/12/05 15:18:54;;;;;;;3.10;1.60;;;6.10;99.90;;;;;;5007223;28;20448;-79
2021/12/05 15:21:21;;;;;;;3.85;1.52;;;6.20;99.90;;;;;;4994169;28;20112;-79
2021/12/05 15:23:47;;;;;;;3.22;1.67;;;6.10;99.90;;;;;;5009370;28;20045;-79
2021/12/05 15:26:14;;;;;;;2.40;1.60;;;6.10;99.90;;;;;;4975930;28;20026;-79
2021/12/05 15:28:40;;;;;;;4.00;1.20;;;6.10;99.90;;;;;;4994281;28;20563;-79
2021/12/05 15:31:05;;;;;;;2.67;1.55;;;6.00;99.90;;;;;;5007003;28;20030;-79
2021/12/05 15:33:33;;;;;;;4.13;1.55;;;6.00;99.90;;;;;;4975578;28;20053;-79
2021/12/05 15:35:59;;;;;;;3.75;1.10;;;5.90;99.90;;;;;;4969241;28;20727;-79
2021/12/05 15:38:27;;;;;;;4.40;1.85;;;5.90;99.90;;;;;;4979734;28;20033;-79
2021/12/05 15:40:55;;;;;;;8.00;3.20;;;5.90;99.90;;;;;;5009268;28;20633;-79
2021/12/05 15:43:22;;;;;;;8.38;4.35;;;5.80;99.90;;;;;;4992091;28;20040;-80
2021/12/05 15:45:49;;;;;;;7.03;3.30;;;5.80;99.90;;;;;;5002737;28;20030;-80
2021/12/05 15:48:22;;;;;;;3.53;2.38;;;5.80;99.90;;;;;;4979310;28;20091;-79
2021/12/05 15:50:50;;;;;;;5.45;2.40;;;5.70;99.90;;;;;;4985680;28;20029;-80
2021/12/05 15:53:16;;;;;;;5.20;1.60;;;5.70;99.90;;;;;;4978040;28;20038;-80
2021/12/05 15:55:43;;;;;;;4.85;2.13;;;5.70;99.90;;;;;;5008172;28;20051;-80
2021/12/05 15:58:19;;;;;;;2.40;1.52;;;5.60;99.90;;;;;;4991737;28;20037;-80
2021/12/05 16:00:46;;;;;;;;;;;5.60;99.90;;;;;;5003134;28;20037;-79
2021/12/05 16:03:23;;;;;;;2.80;1.60;;;5.60;99.90;;;;;;4999893;28;19920;-79
2021/12/05 16:05:54;;;;;;;3.20;1.40;;;5.50;99.90;;;;;;4972826;28;20048;-80
2021/12/05 16:08:20;;;;;;;6.53;3.00;;;5.50;99.90;;;;;;4973037;28;20041;-80
2021/12/05 16:10:47;;;;;;;2.22;1.40;;;5.40;99.90;;;;;;5005154;28;20613;-79
2021/12/05 16:13:15;;;;;;;2.90;1.60;;;5.40;99.90;;;;;;4973470;28;20135;-79
2021/12/05 16:15:42;;;;;;;3.03;1.52;;;5.40;99.90;;;;;;4986882;28;24831;-80
2021/12/05 16:18:08;;;;;;;2.13;1.48;;;5.40;99.90;;;;;;5003700;28;20091;-79
2021/12/05 16:20:40;;;;;;;3.25;1.50;;;5.30;99.90;;;;;;4992802;28;20029;-80
2021/12/05 16:23:11;;;;;;;4.00;2.00;;;5.30;99.90;;;;;;4990593;28;20033;-80
2021/12/05 16:26:01;;;;;;;6.15;2.67;;;5.30;99.90;;;;;;4989485;28;20030;-80
2021/12/05 16:28:31;;;;;;;3.72;2.15;;;5.20;99.90;;;;;;5000227;28;20033;-79
2021/12/05 16:31:12;;;;;;;5.50;2.15;;;5.20;99.90;;;;;;4987535;28;20083;-79
2021/12/05 16:33:38;;;;;;;2.90;1.50;;;5.10;99.90;;;;;;4989387;28;20033;-79
2021/12/05 16:36:05;;;;;;;2.42;1.67;;;5.10;99.90;;;;;;4989612;28;20076;-79
2021/12/05 16:38:39;;;;;;;4.70;2.00;;;5.10;99.90;;;;;;5005806;28;20033;-79
2021/12/05 16:41:28;;;;;;;3.50;2.33;;;5.00;99.90;;;;;;4968720;28;20035;-79
2021/12/05 16:44:11;;;;;;;4.55;2.97;;;5.00;99.90;;;;;;4996450;28;20034;-79
2021/12/05 16:46:45;;;;;;;4.43;3.05;;;4.90;99.90;;;;;;4993026;28;20064;-79
2021/12/05 16:49:13;;;;;;;6.10;3.38;;;4.90;99.90;;;;;;5006389;28;20083;-79
2021/12/05 16:51:56;;;;;;;4.68;2.67;;;4.90;99.90;;;;;;4990080;28;20117;-79
2021/12/05 16:54:24;;;;;;;4.80;2.30;;;4.80;99.90;;;;;;4973207;28;20033;-79
2021/12/05 16:56:58;;;;;;;4.68;2.00;;;4.80;99.90;;;;;;4983635;28;20033;-79
2021/12/05 16:59:37;;;;;;;2.42;1.75;;;4.80;99.90;;;;;;4991250;28;20034;-79
2021/12/05 17:02:17;;;;;;;4.60;2.28;;;4.70;99.90;;;;;;4988525;28;20099;-79
2021/12/05 17:04:57;;;;;;;5.50;2.25;;;4.70;99.90;;;;;;5025083;28;20095;-79
2021/12/05 17:07:56;;;;;;;4.43;2.40;;;4.70;99.90;;;;;;4991553;28;20040;-79
2021/12/05 17:10:25;;;;;;;5.63;2.95;;;4.70;99.90;;;;;;4992526;28;20026;-79
2021/12/05 17:13:19;;;;;;;5.15;2.47;;;4.60;99.90;;;;;;5024146;28;20092;-79
2021/12/05 17:15:59;;;;;;;3.97;2.17;;;4.60;99.90;;;;;;5008120;28;20037;-80
2021/12/05 17:18:28;;;;;;;4.25;2.50;;;4.60;99.90;;;;;;4989906;28;20171;-79
2021/12/05 17:20:58;;;;;;;4.35;2.55;;;4.60;99.90;;;;;;4989523;28;20144;-80
2021/12/05 17:23:32;;;;;;;4.32;2.50;;;4.50;99.90;;;;;;5007303;28;20037;-79
2021/12/05 17:26:10;;;;;;;9.10;4.32;;;4.50;99.90;;;;;;4992651;28;20040;-79
2021/12/05 17:28:46;;;;;;;10.48;5.88;;;4.50;99.90;;;;;;4975203;28;20368;-80
2021/12/05 17:31:13;;;;;;;7.18;4.22;;;4.40;99.90;;;;;;5007527;28;20033;-80
2021/12/05 17:33:46;;;;;;;10.45;4.20;;;4.40;99.90;;;;;;5002804;28;20043;-79
2021/12/05 17:36:17;;;;;;;8.30;4.22;;;4.40;99.90;;;;;;4987704;28;20485;-79
2021/12/05 17:38:42;;;;;;;7.78;4.25;;;4.30;99.90;;;;;;4976547;28;20201;-79
2021/12/05 17:41:08;;;;;;;9.05;4.22;;;4.30;99.90;;;;;;4992430;28;20428;-80
2021/12/05 17:43:33;;;;;;;7.82;4.93;;;4.20;99.90;;;;;;5005375;28;20052;-79
2021/12/05 17:45:59;;;;;;;8.27;4.95;;;4.20;99.90;;;;;;4971784;28;20498;-80
2021/12/05 17:48:24;;;;;;;11.32;6.05;;;4.20;99.90;;;;;;5007560;28;20374;-82
2021/12/05 17:50:53;;;;;;;11.55;7.03;;;4.10;99.90;;;;;;4978555;28;20037;-80
2021/12/05 17:53:20;;;;;;;12.00;7.05;;;4.10;99.90;;;;;;4991120;28;20045;-80
2021/12/05 17:55:47;;;;;;;12.07;7.10;;;4.10;99.90;;;;;;5003557;28;20038;-80
2021/12/05 17:58:36;;;;;;;11.88;7.25;;;4.00;99.90;;;;;;4991724;28;20022;-80
2021/12/05 18:03:49;;;;;;;13.80;8.43;;;4.00;99.90;;;;;;5007055;28;20083;-80
2021/12/05 18:06:15;;;;;;;13.43;7.40;;;3.90;99.90;;;;;;4976276;28;21939;-80
2021/12/05 18:08:40;;;;;;;12.40;7.85;;;3.90;99.90;;;;;;4988350;28;20077;-80
2021/12/05 18:11:11;;;;;;;13.32;7.68;;;3.90;99.90;;;;;;4985550;28;20029;-80
2021/12/05 18:13:38;;;;;;;11.13;6.93;;;3.90;99.90;;;;;;4992663;28;20046;-80
2021/12/05 18:16:11;;;;;;;10.05;6.63;;;3.90;99.90;;;;;;4988818;28;20117;-80
2021/12/05 18:18:37;;;;;;;13.48;7.07;;;3.90;99.90;;;;;;4992823;28;20402;-80
2021/12/05 18:21:04;;;;;;;14.40;7.43;;;3.90;99.90;;;;;;4991263;28;20040;-80
2021/12/05 18:23:29;;;;;;;13.75;8.05;;;3.90;99.90;;;;;;4993574;28;20041;-80
2021/12/05 18:25:56;;;;;;;11.20;7.72;;;4.00;99.90;;;;;;4304026;28;10000644;-80